Time;durP1;ratioP1;P1;durP2;ratioP2;P2;SDS_P1;SDS_P2;PMS_P1;PMS_P2;Temp;Humidity;BMP_temperature;BMP_pressure;BME280_temperature;BME280_humidity;BME280_pressure;Samples;Min_cycle;Max_cycle;Signal;HPM_P1;HPM_P2
2023/11/27 00:00:36;;;;;;;11.57;6.05;;;;;;;-0.86;81.60;99384.16;1801464;79;25341;-47
2023/11/27 00:03:06;;;;;;;10.70;6.58;;;;;;;-0.85;81.71;99379.11;1801435;79;25876;-47
2023/11/27 00:05:32;;;;;;;40.07;37.37;;;;;;;-0.87;81.60;99382.05;1801579;79;25410;-48
2023/11/27 00:08:01;;;;;;;10.87;10.30;;;;;;;-0.91;81.70;99372.97;1801534;79;25424;-47
2023/11/27 00:13:11;;;;;;;8.50;8.10;;;;;;;-0.81;81.71;99390.30;1925079;74;32179;-47
2023/11/27 00:15:39;;;;;;;14.33;13.37;;;;;;;;;;1894954;75;25277;-46
2023/11/27 00:18:07;;;;;;;9.27;8.87;;;;;;;;;;1894946;75;27360;-48
2023/11/27 00:20:35;;;;;;;8.43;8.07;;;;;;;;;;1894805;75;25537;-47
2023/11/27 00:23:03;;;;;;;2.00;1.90;;;;;;;;;;1895130;75;25449;-47
2023/11/27 00:25:30;;;;;;;10.45;9.98;;;;;;;;;;1895015;75;25418;-47
2023/11/27 00:28:01;;;;;;;3.60;3.40;;;;;;;;;;1894912;75;25472;-47
2023/11/27 00:30:28;;;;;;;5.27;4.97;;;;;;;;;;1894970;75;27752;-46
2023/11/27 00:32:56;;;;;;;1.75;1.67;;;;;;;;;;1894961;75;25423;-46
2023/11/27 00:35:23;;;;;;;7.17;6.75;;;;;;;;;;1895058;75;25348;-46
2023/11/27 00:37:52;;;;;;;2.83;2.72;;;;;;;;;;1894976;75;25418;-47
2023/11/27 00:40:19;;;;;;;4.50;4.37;;;;;;;;;;1894856;75;25470;-46
2023/11/27 00:42:46;;;;;;;3.50;3.35;;;;;;;;;;1894953;75;27361;-47
2023/11/27 00:45:15;;;;;;;6.17;5.83;;;;;;;;;;1894906;75;25389;-45
2023/11/27 00:47:42;;;;;;;12.70;12.07;;;;;;;;;;1894849;75;25529;-46
2023/11/27 00:50:10;;;;;;;4.95;4.75;;;;;;;;;;1894949;75;25489;-47
2023/11/27 00:52:37;;;;;;;6.17;5.87;;;;;;;;;;1895005;75;25653;-50
2023/11/27 00:55:06;;;;;;;4.87;4.72;;;;;;;;;;1895010;75;27275;-49
2023/11/27 00:57:34;;;;;;;4.60;4.50;;;;;;;;;;1894713;75;25265;-46
2023/11/27 01:00:01;;;;;;;8.10;7.67;;;;;;;;;;1895000;75;25234;-47
2023/11/27 01:02:30;;;;;;;;;;;;;;;;;;1897588;75;25510;-50
2023/11/27 01:04:57;;;;;;;11.93;6.03;;;;;;;;;;1894926;75;25403;-47
2023/11/27 01:07:28;;;;;;;10.45;6.60;;;;;;;;;;1894989;75;27690;-46
2023/11/27 01:09:55;;;;;;;7.78;6.17;;;;;;;;;;1894950;75;25301;-45
2023/11/27 01:12:24;;;;;;;8.23;6.10;;;;;;;;;;1887990;75;25292;-46
2023/11/27 01:14:51;;;;;;;10.50;6.42;;;;;;;;;;1858430;76;25563;-47
2023/11/27 01:17:21;;;;;;;8.90;5.75;;;;;;;;;;1882806;76;25289;-47
2023/11/27 01:19:50;;;;;;;10.30;6.78;;;;;;;;;;1858569;76;27211;-46
2023/11/27 01:22:19;;;;;;;8.20;5.97;;;;;;;;;;1882715;76;25549;-47
2023/11/27 01:24:48;;;;;;;8.95;5.67;;;;;;;;;;1882164;76;34641;-47
2023/11/27 01:27:18;;;;;;;8.90;7.00;;;;;;;;;;1882210;76;25329;-48
2023/11/27 01:29:45;;;;;;;10.53;7.25;;;;;;;;;;1882229;76;25482;-49
2023/11/27 01:32:14;;;;;;;12.18;7.55;;;;;;;;;;1882064;76;27683;-47
2023/11/27 01:34:41;;;;;;;8.63;6.78;;;;;;;;;;1882079;76;25471;-46
2023/11/27 01:37:10;;;;;;;10.63;7.10;;;;;;;;;;1882183;76;25461;-48
2023/11/27 01:39:37;;;;;;;10.10;7.17;;;;;;;;;;1882251;76;25997;-49
2023/11/27 01:42:05;;;;;;;13.10;7.37;;;;;;;;;;1882108;76;25460;-51
2023/11/27 01:44:34;;;;;;;10.48;7.67;;;;;;;;;;1882115;76;27373;-47
2023/11/27 01:47:03;;;;;;;11.25;8.35;;;;;;;;;;1882135;76;26024;-47
2023/11/27 01:49:32;;;;;;;10.90;7.58;;;;;;;;;;1882280;76;25384;-49
2023/11/27 01:52:02;;;;;;;7.70;5.40;;;;;;;;;;1882170;76;25404;-47
2023/11/27 01:54:31;;;;;;;13.90;8.28;;;;;;;;;;1882264;76;25312;-48
2023/11/27 01:57:00;;;;;;;14.05;7.75;;;;;;;;;;1882074;76;27358;-46
2023/11/27 01:59:29;;;;;;;12.95;7.58;;;;;;;;;;1882145;76;25426;-47
2023/11/27 02:01:57;;;;;;;10.65;7.40;;;;;;;;;;1882157;76;25460;-46
2023/11/27 02:04:28;;;;;;;11.63;7.75;;;;;;;;;;1882172;76;25419;-48
2023/11/27 02:06:55;;;;;;;13.62;10.72;;;;;;;;;;1882194;76;25485;-48
2023/11/27 02:09:24;;;;;;;10.48;7.50;;;;;;;;;;1857645;76;27466;-48
2023/11/27 02:11:52;;;;;;;10.38;8.15;;;;;;;;;;1876598;76;25688;-46
2023/11/27 02:14:21;;;;;;;12.82;8.63;;;;;;;;;;1838075;77;25306;-47
2023/11/27 02:16:48;;;;;;;12.55;8.40;;;;;;;;;;1859214;77;25324;-47
2023/11/27 02:19:15;;;;;;;16.95;10.25;;;;;;;;;;1859278;77;25293;-47
2023/11/27 02:21:45;;;;;;;14.30;9.35;;;;;;;;;;1859410;76;27354;-46
2023/11/27 02:24:12;;;;;;;14.63;9.40;;;;;;;;;;1859339;77;25449;-47
2023/11/27 02:26:39;;;;;;;13.40;9.50;;;;;;;;;;1859419;77;25483;-48
2023/11/27 02:29:06;;;;;;;14.00;10.15;;;;;;;;;;1859171;77;25747;-47
2023/11/27 02:31:37;;;;;;;13.55;9.70;;;;;;;;;;1859227;77;25419;-47
2023/11/27 02:34:04;;;;;;;14.30;9.08;;;;;;;;;;1859226;76;27467;-47
2023/11/27 02:36:35;;;;;;;12.93;9.50;;;;;;;;;;1859171;77;25420;-47
2023/11/27 02:39:04;;;;;;;15.72;10.45;;;;;;;;;;1859292;77;25298;-47
2023/11/27 02:41:31;;;;;;;16.25;10.38;;;;;;;;;;1859316;77;25423;-47
2023/11/27 02:43:58;;;;;;;14.55;9.50;;;;;;;;;;1859295;77;25336;-48
2023/11/27 02:46:26;;;;;;;14.60;9.85;;;;;;;;;;1859169;77;27176;-47
2023/11/27 02:48:53;;;;;;;17.75;10.08;;;;;;;;;;1859116;77;25622;-47
2023/11/27 02:51:20;;;;;;;14.93;11.18;;;;;;;;;;1859197;77;25305;-51
2023/11/27 02:53:48;;;;;;;18.65;10.88;;;;;;;;;;1859132;77;25413;-47
2023/11/27 02:56:16;;;;;;;17.20;10.58;;;;;;;;;;1859450;77;25451;-47
2023/11/27 02:58:43;;;;;;;16.67;11.33;;;;;;;;;;1859194;77;26958;-47
2023/11/27 03:01:10;;;;;;;13.85;10.13;;;;;;;;;;1859061;77;25392;-46
2023/11/27 03:03:38;;;;;;;13.32;10.28;;;;;;;;;;1859135;76;25415;-47
2023/11/27 03:06:08;;;;;;;17.25;10.68;;;;;;;;;;1859103;77;25693;-46
2023/11/27 03:08:35;;;;;;;16.35;10.85;;;;;;;;;;1859291;77;25289;-46
2023/11/27 03:11:03;;;;;;;14.80;10.80;;;;;;;;;;1859182;77;27200;-46
2023/11/27 03:13:31;;;;;;;14.35;9.85;;;;;;;;;;1877028;76;32524;-47
2023/11/27 03:15:59;;;;;;;14.90;10.30;;;;;;;;;;1881988;76;25451;-46
2023/11/27 03:18:26;;;;;;;15.85;10.05;;;;;;;;;;1881947;76;25918;-47
2023/11/27 03:20:55;;;;;;;13.00;9.15;;;;;;;;;;1882122;76;25428;-47
2023/11/27 03:23:22;;;;;;;16.32;10.43;;;;;;;;;;1857077;76;27125;-47
2023/11/27 03:25:49;;;;;;;16.75;10.78;;;;;;;;;;1881933;76;25434;-49
2023/11/27 03:28:18;;;;;;;14.23;9.73;;;;;;;;;;1882024;76;25281;-51
2023/11/27 03:30:45;;;;;;;15.18;9.83;;;;;;;;;;1882105;76;25572;-47
2023/11/27 03:33:12;;;;;;;14.10;9.63;;;;;;;;;;1882074;76;25297;-49
2023/11/27 03:35:40;;;;;;;14.03;9.95;;;;;;;;;;1882038;76;28025;-48
2023/11/27 03:38:07;;;;;;;14.93;10.30;;;;;;;;;;1881887;76;25843;-46
2023/11/27 03:40:34;;;;;;;16.87;10.05;;;;;;;;;;1882023;76;25569;-47
2023/11/27 03:43:01;;;;;;;15.35;10.65;;;;;;;;;;1881883;76;25470;-47
2023/11/27 03:45:28;;;;;;;16.67;10.88;;;;;;;;;;1881978;76;25438;-47
2023/11/27 03:47:55;;;;;;;17.25;10.13;;;;;;;;;;1881949;76;27448;-48
2023/11/27 03:50:23;;;;;;;17.48;10.75;;;;;;;;;;1829260;76;25446;-47
2023/11/27 03:52:54;;;;;;;15.45;10.58;;;;;;;;;;1882116;76;25313;-47
2023/11/27 03:55:21;;;;;;;18.95;11.05;;;;;;;;;;1882161;76;25438;-49
2023/11/27 03:57:48;;;;;;;16.52;10.55;;;;;;;;;;1882118;76;25264;-50
2023/11/27 04:00:18;;;;;;;16.60;10.70;;;;;;;;;;1881973;76;27678;-49
2023/11/27 04:02:45;;;;;;;17.32;10.82;;;;;;;;;;1881876;76;25421;-51
2023/11/27 04:05:12;;;;;;;17.55;10.93;;;;;;;;;;1882079;76;25490;-51
2023/11/27 04:07:40;;;;;;;16.95;10.70;;;;;;;;;;1882034;76;25535;-49
2023/11/27 04:10:18;;;;;;;18.67;10.40;;;;;;;;;;1882107;76;25497;-46
2023/11/27 04:12:45;;;;;;;14.83;10.28;;;;;;;;;;1881888;76;27247;-47
2023/11/27 04:15:14;;;;;;;14.83;10.35;;;;;;;;;;1881149;76;26127;-47
2023/11/27 04:17:42;;;;;;;16.65;10.85;;;;;;;;;;1882087;76;30336;-47
2023/11/27 04:20:11;;;;;;;16.70;10.63;;;;;;;;;;1881888;76;25548;-47
2023/11/27 04:22:38;;;;;;;17.23;11.53;;;;;;;;;;1881913;76;25471;-46
2023/11/27 04:25:08;;;;;;;16.73;12.80;;;;;;;;;;1881904;76;28004;-47
2023/11/27 04:27:36;;;;;;;17.12;11.90;;;;;;;;;;1886222;76;25434;-47
2023/11/27 04:30:06;;;;;;;17.98;11.48;;;;;;;;;;1882015;76;25412;-46
2023/11/27 04:32:35;;;;;;;17.10;11.28;;;;;;;;;;1881896;76;25640;-48
2023/11/27 04:35:04;;;;;;;17.45;11.20;;;;;;;;;;1882074;76;25490;-47
2023/11/27 04:37:31;;;;;;;18.37;11.73;;;;;;;;;;1882062;76;27721;-51
2023/11/27 04:39:58;;;;;;;18.30;12.20;;;;;;;;;;1881908;76;27201;-51
2023/11/27 04:42:32;;;;;;;17.92;12.37;;;;;;;;;;1882050;76;25778;-48
2023/11/27 04:44:56;;;;;;;18.07;11.95;;;;;;;;;;1881124;76;25824;-46
2023/11/27 04:47:24;;;;;;;18.60;11.95;;;;;;;;;;1881936;76;25458;-46
2023/11/27 04:49:53;;;;;;;19.37;12.00;;;;;;;;;;1881983;76;27739;-47
2023/11/27 04:52:20;;;;;;;17.98;11.33;;;;;;;;;;1857472;76;31013;-48
2023/11/27 04:54:49;;;;;;;17.35;11.20;;;;;;;;;;1881897;76;25286;-46
2023/11/27 04:57:18;;;;;;;14.98;9.43;;;;;;;;;;1881989;76;25519;-47
2023/11/27 04:59:47;;;;;;;16.37;10.85;;;;;;;;;;1882223;76;32569;-47
2023/11/27 05:02:15;;;;;;;18.17;11.05;;;;;;;;;;1882179;76;27758;-47
2023/11/27 05:04:45;;;;;;;18.35;10.48;;;;;;;;;;1882101;76;25410;-48
2023/11/27 05:07:15;;;;;;;17.70;11.43;;;;;;;;;;1882243;76;25389;-50
2023/11/27 05:09:44;;;;;;;18.62;11.55;;;;;;;;;;1882185;76;25453;-50
2023/11/27 05:12:11;;;;;;;17.50;11.90;;;;;;;;;;1882116;76;25455;-49
2023/11/27 05:14:42;;;;;;;21.55;13.32;;;;;;;;;;1859462;77;28119;-48
2023/11/27 05:17:09;;;;;;;22.27;12.28;;;;;;;;;;1859409;77;25416;-47
2023/11/27 05:19:37;;;;;;;24.95;13.15;;;;;;;;;;1859319;77;25386;-47
2023/11/27 05:22:04;;;;;;;20.52;12.95;;;;;;;;;;1859193;77;25509;-47
2023/11/27 05:24:32;;;;;;;21.05;13.62;;;;;;;;;;1859297;77;25349;-48
2023/11/27 05:27:00;;;;;;;19.85;13.22;;;;;;;;;;1859456;77;27460;-48
2023/11/27 05:29:28;;;;;;;21.70;13.53;;;;;;;;;;1859158;77;25262;-49
2023/11/27 05:31:57;;;;;;;20.65;13.95;;;;;;;;;;1859266;77;25456;-47
2023/11/27 05:34:24;;;;;;;20.77;14.28;;;;;;;;;;1859336;77;26498;-47
2023/11/27 05:36:53;;;;;;;20.50;12.82;;;;;;;;;;1859406;77;30847;-46
2023/11/27 05:39:21;;;;;;;19.90;13.45;;;;;;;;;;1859225;77;27291;-46
2023/11/27 05:41:49;;;;;;;21.68;13.55;;;;;;;;;;1859384;77;32783;-47
2023/11/27 05:44:19;;;;;;;19.32;13.28;;;;;;;;;;1859225;76;25306;-47
2023/11/27 05:46:49;;;;;;;22.77;13.95;;;;;;;;;;1859232;77;25671;-47
2023/11/27 05:49:16;;;;;;;19.35;12.95;;;;;;;;;;1859378;77;25443;-48
2023/11/27 05:51:45;;;;;;;21.37;13.78;;;;;;;;;;1859230;76;28401;-49
2023/11/27 05:54:12;;;;;;;20.70;13.65;;;;;;;;;;1859231;77;25435;-48
2023/11/27 05:56:39;;;;;;;19.10;13.53;;;;;;;;;;1859169;77;25420;-48
2023/11/27 05:59:08;;;;;;;20.45;13.58;;;;;;;;;;1859129;77;25442;-48
2023/11/27 06:01:36;;;;;;;18.65;13.90;;;;;;;;;;1859331;77;33085;-47
2023/11/27 06:04:05;;;;;;;21.55;14.10;;;;;;;;;;1859174;77;27256;-48
2023/11/27 06:06:34;;;;;;;23.85;15.03;;;;;;;;;;1859207;77;33253;-51
2023/11/27 06:09:01;;;;;;;21.42;13.78;;;;;;;;;;1859314;77;25448;-48
2023/11/27 06:11:32;;;;;;;15.45;10.70;;;;;;;;;;1859266;76;26616;-48
2023/11/27 06:13:59;;;;;;;;;;;;;;;;;;1861805;76;25459;-51
2023/11/27 06:16:30;;;;;;;26.40;14.13;;;;;;;;;;1859333;77;27743;-48
2023/11/27 06:18:58;;;;;;;23.15;14.93;;;;;;;;;;1859267;77;25459;-47
2023/11/27 06:21:27;;;;;;;15.28;10.58;;;;;;;;;;1859471;77;25384;-48
2023/11/27 06:23:55;;;;;;;23.42;14.63;;;;;;;;;;1859108;77;25595;-47
2023/11/27 06:26:22;;;;;;;21.02;14.85;;;;;;;;;;1858197;77;25520;-46
2023/11/27 06:28:51;;;;;;;23.62;14.28;;;;;;;;;;1837291;77;27430;-48
2023/11/27 06:31:19;;;;;;;24.12;16.07;;;;;;;;;;1859181;77;25443;-47
2023/11/27 06:33:47;;;;;;;22.32;14.20;;;;;;;;;;1859283;77;25437;-48
2023/11/27 06:36:18;;;;;;;22.40;15.83;;;;;;;;;;1859223;77;27147;-48
2023/11/27 06:38:45;;;;;;;25.00;14.93;;;;;;;;;;1859327;77;25306;-48
2023/11/27 06:41:14;;;;;;;22.60;14.85;;;;;;;;;;1859160;77;27360;-48
2023/11/27 06:43:42;;;;;;;26.30;15.95;;;;;;;;;;1859167;76;26013;-47
2023/11/27 06:46:12;;;;;;;23.32;14.20;;;;;;;;;;1859245;77;25322;-46
2023/11/27 06:48:41;;;;;;;27.10;14.60;;;;;;;;;;1859127;76;25593;-48
2023/11/27 06:51:12;;;;;;;22.93;14.05;;;;;;;;;;1859338;76;25479;-48
2023/11/27 06:53:39;;;;;;;24.72;15.65;;;;;;;;;;1859383;76;27370;-47
2023/11/27 06:56:10;;;;;;;27.42;15.58;;;;;;;;;;1859177;77;25330;-46
2023/11/27 06:58:37;;;;;;;25.88;16.10;;;;;;;;;;1859304;77;25418;-48
2023/11/27 07:01:11;;;;;;;30.45;17.20;;;;;;;;;;1859176;77;25594;-47
2023/11/27 07:03:38;;;;;;;29.67;17.45;;;;;;;;;;1859181;77;25286;-48
2023/11/27 07:06:10;;;;;;;28.23;17.87;;;;;;;;;;1859257;77;27606;-46
2023/11/27 07:08:37;;;;;;;24.55;16.07;;;;;;;;;;1859154;77;25739;-50
2023/11/27 07:11:08;;;;;;;29.30;15.88;;;;;;;;;;1859132;77;25406;-46
2023/11/27 07:13:35;;;;;;;27.98;16.07;;;;;;;;;;1842330;76;25466;-47
2023/11/27 07:16:05;;;;;;;28.87;16.30;;;;;;;;;;1865240;76;25454;-51
2023/11/27 07:18:32;;;;;;;27.20;16.40;;;;;;;;;;1864630;77;27463;-49
2023/11/27 07:21:05;;;;;;;23.07;15.48;;;;;;;;;;1864610;76;28760;-51
2023/11/27 07:23:34;;;;;;;24.15;16.12;;;;;;;;;;1864575;77;25460;-48
2023/11/27 07:26:01;;;;;;;27.65;16.27;;;;;;;;;;1864545;76;25435;-49
2023/11/27 07:28:30;;;;;;;25.55;16.50;;;;;;;;;;1864797;76;32626;-47
2023/11/27 07:30:58;;;;;;;27.70;17.25;;;;;;;;;;1864548;77;27906;-47
2023/11/27 07:33:26;;;;;;;30.05;17.30;;;;;;;;;;1864620;76;25334;-49
2023/11/27 07:35:53;;;;;;;25.88;16.32;;;;;;;;;;1864554;77;25256;-47
2023/11/27 07:38:21;;;;;;;28.57;16.82;;;;;;;;;;1864447;77;26041;-49
2023/11/27 07:40:48;;;;;;;27.98;17.15;;;;;;;;;;1864523;77;25431;-48
2023/11/27 07:43:15;;;;;;;29.15;19.55;;;;;;;;;;1864488;76;27394;-48
2023/11/27 07:45:45;;;;;;;32.13;20.20;;;;;;;;;;1864521;77;25439;-47
2023/11/27 07:48:12;;;;;;;30.62;19.20;;;;;;;;;;1864612;77;25492;-49
2023/11/27 07:50:41;;;;;;;32.40;19.60;;;;;;;;;;1864485;77;25547;-48
2023/11/27 07:53:09;;;;;;;33.05;19.60;;;;;;;;;;1864637;77;25312;-48
2023/11/27 07:55:37;;;;;;;29.20;18.70;;;;;;;;;;1864679;76;27395;-49
2023/11/27 07:58:04;;;;;;;29.15;18.00;;;;;;;;;;1864428;76;25622;-48
2023/11/27 08:00:32;;;;;;;32.98;18.55;;;;;;;;;;1864527;77;25424;-48
2023/11/27 08:03:03;;;;;;;33.20;20.15;;;;;;;;;;1864628;76;26670;-47
2023/11/27 08:05:30;;;;;;;37.85;20.12;;;;;;;;;;1864622;77;25478;-47
2023/11/27 08:08:01;;;;;;;36.73;20.55;;;;;;;;;;1864692;76;27722;-48
2023/11/27 08:10:28;;;;;;;34.78;19.17;;;;;;;;;;1840697;77;25378;-47
2023/11/27 08:13:00;;;;;;;30.55;18.30;;;;;;;;;;1864682;76;25467;-47
2023/11/27 08:15:27;;;;;;;33.98;18.92;;;;;;;;;;1867011;76;26303;-47
2023/11/27 08:17:57;;;;;;;29.87;17.62;;;;;;;;;;1864542;77;25258;-48
2023/11/27 08:20:28;;;;;;;29.90;17.00;;;;;;;;;;1864488;77;27923;-47
2023/11/27 08:22:57;;;;;;;26.97;16.97;;;;;;;;;;1864409;77;25468;-51
2023/11/27 08:25:28;;;;;;;33.20;17.55;;;;;;;;;;1864486;77;25527;-48
2023/11/27 08:27:57;;;;;;;32.42;17.92;;;;;;;;;;1864497;77;26137;-47
2023/11/27 08:30:29;;;;;;;33.60;17.95;;;;;;;;;;1864675;76;25278;-48
2023/11/27 08:32:55;;;;;;;31.62;18.42;;;;;;;;;;1864436;77;27348;-47
2023/11/27 08:35:25;;;;;;;30.77;17.15;;;;;;;;;;1864616;77;25250;-47
2023/11/27 08:37:55;;;;;;;29.00;17.77;;;;;;;;;;1864815;77;25291;-47
2023/11/27 08:40:25;;;;;;;37.48;19.07;;;;;;;;;;1864695;77;25450;-48
2023/11/27 08:42:52;;;;;;;30.20;17.82;;;;;;;;;;1864669;77;25432;-48
2023/11/27 08:45:22;;;;;;;31.90;19.55;;;;;;;;;;1864666;77;27935;-47
2023/11/27 08:47:52;;;;;;;31.55;17.32;;;;;;;;;;1864121;76;25988;-50
2023/11/27 08:50:32;;;;;;;33.00;17.80;;;;;;;;;;1864711;76;25283;-48
2023/11/27 08:52:59;;;;;;;32.87;18.73;;;;;;;;;;1864331;76;25650;-47
2023/11/27 08:55:29;;;;;;;28.10;17.12;;;;;;;;;;1864843;77;25526;-47
2023/11/27 08:58:01;;;;;;;29.42;16.97;;;;;;;;;;1864693;77;27726;-48
2023/11/27 09:00:30;;;;;;;25.10;15.95;;;;;;;;;;1864660;77;25391;-49
2023/11/27 09:03:00;;;;;;;27.20;16.25;;;;;;;;;;1864859;77;25295;-47
2023/11/27 09:05:30;;;;;;;;;;;;;;;;;;1867433;77;25726;-46
2023/11/27 09:08:04;;;;;;;30.55;16.17;;;;;;;;;;1864715;77;25515;-48
2023/11/27 09:10:29;;;;;;;27.07;16.95;;;;;;;;;;1863774;76;27342;-46
2023/11/27 09:12:58;;;;;;;28.85;16.87;;;;;;;;;;1864739;76;26988;-48
2023/11/27 09:15:25;;;;;;;28.87;16.52;;;;;;;;;;1869544;76;25324;-47
2023/11/27 09:17:52;;;;;;;27.35;15.98;;;;;;;;;;1877602;76;26299;-47
2023/11/27 09:20:20;;;;;;;26.48;14.98;;;;;;;;;;1882229;76;25443;-49
2023/11/27 09:22:47;;;;;;;27.42;14.75;;;;;;;;;;1882115;76;27933;-49
2023/11/27 09:25:15;;;;;;;24.70;15.93;;;;;;;;;;1881980;76;25434;-47
2023/11/27 09:27:42;;;;;;;26.25;16.02;;;;;;;;;;1882115;76;25480;-49
2023/11/27 09:30:11;;;;;;;26.60;15.75;;;;;;;;;;1882067;76;26443;-47
2023/11/27 09:32:39;;;;;;;24.82;15.10;;;;;;;;;;1882134;76;25288;-48
2023/11/27 09:35:15;;;;;;;26.02;15.58;;;;;;;;;;1882255;76;27789;-47
2023/11/27 09:37:42;;;;;;;23.05;14.28;;;;;;;;;;1882117;76;25531;-52
2023/11/27 09:40:12;;;;;;;29.32;15.88;;;;;;;;;;1882142;76;25024;-48
2023/11/27 09:42:40;;;;;;;25.45;15.85;;;;;;;;;;1882250;76;30360;-47
2023/11/27 09:45:10;;;;;;;24.37;15.55;;;;;;;;;;1882247;76;25496;-49
2023/11/27 09:47:38;;;;;;;;;;;;;;;;;;1884950;76;27321;-47
2023/11/27 09:50:11;;;;;;;26.90;15.48;;;;;;;;;;1882087;76;25568;-49
2023/11/27 09:52:48;;;;;;;25.23;15.70;;;;;;;;;;1882188;76;25352;-48
2023/11/27 09:55:18;;;;;;;24.07;15.48;;;;;;;;;;1882068;76;26464;-48
2023/11/27 09:57:47;;;;;;;28.42;16.65;;;;;;;;;;1882061;76;25297;-46
2023/11/27 10:00:19;;;;;;;33.30;19.12;;;;;;;;;;1882204;76;27389;-50
2023/11/27 10:02:47;;;;;;;28.57;16.77;;;;;;;;;;1881707;76;25354;-46
2023/11/27 10:05:19;;;;;;;29.48;17.07;;;;;;;;;;1882091;76;25245;-49
2023/11/27 10:07:49;;;;;;;34.05;16.48;;;;;;;;;;1882079;76;25487;-48
2023/11/27 10:10:17;;;;;;;31.97;17.57;;;;;;;;;;1882289;76;25284;-48
2023/11/27 10:12:45;;;;;;;31.65;16.77;;;;;;;;;;1882062;76;27394;-49
2023/11/27 10:15:17;;;;;;;30.82;17.20;;;;;;;;;;1868100;76;25830;-48
2023/11/27 10:17:47;;;;;;;29.37;17.20;;;;;;;;;;1859235;77;25297;-47
2023/11/27 10:20:18;;;;;;;29.60;17.12;;;;;;;;;;1859304;76;26145;-47
2023/11/27 10:22:44;;;;;;;30.57;17.50;;;;;;;;;;1859139;76;25324;-51
2023/11/27 10:25:14;;;;;;;33.30;17.90;;;;;;;;;;1858271;77;28083;-48
2023/11/27 10:27:45;;;;;;;32.17;17.35;;;;;;;;;;1858643;77;25958;-48
2023/11/27 10:30:19;;;;;;;32.55;18.05;;;;;;;;;;1859243;76;25334;-48
2023/11/27 10:32:47;;;;;;;28.90;17.75;;;;;;;;;;1858987;76;25484;-48
2023/11/27 10:35:17;;;;;;;31.93;17.20;;;;;;;;;;1859316;77;25344;-47
2023/11/27 10:37:49;;;;;;;29.02;16.73;;;;;;;;;;1859245;77;28215;-48
2023/11/27 10:40:17;;;;;;;27.55;16.02;;;;;;;;;;1858773;76;25551;-49
2023/11/27 10:42:48;;;;;;;27.48;15.90;;;;;;;;;;1859204;77;25282;-48
2023/11/27 10:45:21;;;;;;;28.35;17.07;;;;;;;;;;1859123;77;26624;-46
2023/11/27 10:47:56;;;;;;;27.07;16.07;;;;;;;;;;1859283;77;25402;-47
2023/11/27 10:50:22;;;;;;;25.40;16.50;;;;;;;;;;1856411;76;27568;-48
2023/11/27 10:52:53;;;;;;;28.10;15.88;;;;;;;;;;1859164;77;25431;-47
2023/11/27 10:55:20;;;;;;;28.07;16.50;;;;;;;;;;1810510;77;32277;-47
2023/11/27 10:57:49;;;;;;;27.05;16.20;;;;;;;;;;1859042;77;26073;-49
2023/11/27 11:00:24;;;;;;;;;;;;;;;;;;1862006;77;25475;-48
2023/11/27 11:02:50;;;;;;;27.10;15.45;;;;;;;;;;1859284;76;26820;-48
2023/11/27 11:05:26;;;;;;;26.77;15.70;;;;;;;;;;1859021;77;25898;-49
2023/11/27 11:07:55;;;;;;;27.73;16.27;;;;;;;;;;1858456;76;25490;-47
2023/11/27 11:10:31;;;;;;;30.68;16.62;;;;;;;;;;1858777;77;25584;-47
2023/11/27 11:13:01;;;;;;;25.75;15.98;;;;;;;;;;1858417;77;25290;-48
2023/11/27 11:15:41;;;;;;;26.02;15.45;;;;;;;;;;1858262;77;27581;-48
2023/11/27 11:18:15;;;;;;;26.73;16.05;;;;;;;;;;1858478;76;25528;-46
2023/11/27 11:20:57;;;;;;;28.70;16.77;;;;;;;;;;1859235;77;25281;-47
2023/11/27 11:23:40;;;;;;;29.15;16.75;;;;;;;;;;1859227;77;26445;-47
2023/11/27 11:26:23;;;;;;;29.10;17.20;;;;;;;;;;1859404;77;25264;-48
2023/11/27 11:28:58;;;;;;;26.77;16.75;;;;;;;;;;1859363;77;28278;-47
2023/11/27 11:31:38;;;;;;;30.27;16.87;;;;;;;;;;1856978;76;25492;-47
2023/11/27 11:33:57;;;;;;;29.82;17.00;;;;;;;;;;1857536;76;25502;-47
2023/11/27 11:36:34;;;;;;;26.35;16.75;;;;;;;;;;1859087;77;26306;-50
2023/11/27 11:39:07;;;;;;;30.75;17.73;;;;;;;;;;1837700;77;25443;-49
2023/11/27 11:41:39;;;;;;;41.20;25.12;;;;;;;;;;1859265;76;27682;-50
2023/11/27 11:44:09;;;;;;;59.90;35.52;;;;;;;;;;1858918;77;25334;-51
2023/11/27 11:46:40;;;;;;;30.65;18.32;;;;;;;;;;1858111;76;25552;-53
2023/11/27 11:49:07;;;;;;;27.35;16.67;;;;;;;;;;1858507;76;26717;-50
2023/11/27 11:51:38;;;;;;;28.87;17.77;;;;;;;;;;1859364;77;25484;-47
2023/11/27 11:54:09;;;;;;;27.45;17.90;;;;;;;;;;1836761;76;28064;-47
2023/11/27 11:56:39;;;;;;;31.17;18.55;;;;;;;;;;1825351;78;25443;-47
2023/11/27 11:59:10;;;;;;;31.55;19.87;;;;;;;;;;1805055;78;34716;-46
2023/11/27 12:01:41;;;;;;;33.92;20.68;;;;;;;;;;1825045;78;26593;-48
2023/11/27 12:04:11;;;;;;;31.95;20.05;;;;;;;;;;1825563;78;25642;-50
2023/11/27 12:06:45;;;;;;;30.77;18.40;;;;;;;;;;1825440;77;27370;-48
2023/11/27 12:09:13;;;;;;;34.35;20.50;;;;;;;;;;1824725;78;25440;-46
2023/11/27 12:11:40;;;;;;;31.97;20.35;;;;;;;;;;1825419;78;25360;-49
2023/11/27 12:14:14;;;;;;;34.23;19.02;;;;;;;;;;1825296;78;25923;-49
2023/11/27 12:16:41;;;;;;;37.73;19.40;;;;;;;;;;1847298;77;25255;-50
2023/11/27 12:19:12;;;;;;;33.00;19.50;;;;;;;;;;1847704;77;27410;-47
2023/11/27 12:21:42;;;;;;;34.48;21.23;;;;;;;;;;1847321;77;25090;-48
2023/11/27 12:24:12;;;;;;;31.17;20.68;;;;;;;;;;1847542;77;25134;-50
2023/11/27 12:26:39;;;;;;;30.48;18.73;;;;;;;;;;1847550;77;25471;-47
2023/11/27 12:29:09;;;;;;;31.20;19.57;;;;;;;;;;1847397;77;25440;-48
2023/11/27 12:31:39;;;;;;;28.92;18.98;;;;;;;;;;1847379;77;27699;-48
2023/11/27 12:34:11;;;;;;;33.42;19.35;;;;;;;;;;1847294;77;26173;-48
2023/11/27 12:36:40;;;;;;;37.35;21.20;;;;;;;;;;1846193;77;25479;-47
2023/11/27 12:39:11;;;;;;;42.48;26.07;;;;;;;;;;1847488;77;26226;-46
2023/11/27 12:41:43;;;;;;;91.02;56.68;;;;;;;;;;1847455;77;25450;-48
2023/11/27 12:44:15;;;;;;;32.13;19.80;;;;;;;;;;1846165;77;27718;-47
2023/11/27 12:46:48;;;;;;;34.03;19.95;;;;;;;;;;1847261;77;25420;-46
2023/11/27 12:49:19;;;;;;;35.25;21.35;;;;;;;;;;1847408;77;25452;-46
2023/11/27 12:52:06;;;;;;;35.33;21.15;;;;;;;;;;1847377;77;25447;-49
2023/11/27 12:54:27;;;;;;;37.00;22.32;;;;;;;;;;1844994;77;25425;-47
2023/11/27 12:57:03;;;;;;;34.70;20.37;;;;;;;;;;1852019;77;27506;-46
2023/11/27 12:59:30;;;;;;;35.13;21.25;;;;;;;;;;1847294;77;25948;-47
2023/11/27 13:01:59;;;;;;;40.25;23.35;;;;;;;;;;1847354;77;25041;-46
2023/11/27 13:04:30;;;;;;;38.98;22.37;;;;;;;;;;1847461;77;25894;-46
2023/11/27 13:07:05;;;;;;;37.38;21.95;;;;;;;;;;1847404;77;25472;-46
2023/11/27 13:09:34;;;;;;;43.68;23.27;;;;;;;;;;1847241;77;27657;-48
2023/11/27 13:12:15;;;;;;;43.85;25.12;;;;;;;;;;1847254;77;25437;-47
2023/11/27 13:14:43;;;;;;;45.35;25.65;;;;;;;;;;1847388;77;25292;-47
2023/11/27 13:17:20;;;;;;;43.63;25.70;;;;;;;;;;1847399;77;25631;-47
2023/11/27 13:19:53;;;;;;;42.13;24.85;;;;;;;;;;1847517;77;25499;-48
2023/11/27 13:22:23;;;;;;;41.70;24.30;;;;;;;;;;1847017;77;27833;-48
2023/11/27 13:24:50;;;;;;;48.70;25.90;;;;;;;;;;1847438;77;25463;-48
2023/11/27 13:27:24;;;;;;;38.40;22.87;;;;;;;;;;1847570;77;27854;-46
2023/11/27 13:29:51;;;;;;;36.55;21.42;;;;;;;;;;1847649;77;25990;-47
2023/11/27 13:32:24;;;;;;;34.83;21.05;;;;;;;;;;1847447;77;25585;-47
2023/11/27 13:34:57;;;;;;;39.03;22.82;;;;;;;;;;1847515;77;27433;-46
2023/11/27 13:37:28;;;;;;;40.05;22.35;;;;;;;;;;1847539;77;25617;-48
2023/11/27 13:40:02;;;;;;;43.65;23.87;;;;;;;;;;1847461;77;25353;-48
2023/11/27 13:42:30;;;;;;;41.53;24.85;;;;;;;;;;1847539;77;25557;-46
2023/11/27 13:45:14;;;;;;;54.75;31.50;;;;;;;;;;1847559;77;25503;-46
2023/11/27 13:47:35;;;;;;;53.83;31.55;;;;;;;;;;1845037;77;27323;-47
2023/11/27 13:50:09;;;;;;;43.87;25.48;;;;;;;;;;1847466;77;25429;-49
2023/11/27 13:52:36;;;;;;;43.40;24.50;;;;;;;;;;1847637;77;25504;-48
2023/11/27 13:55:17;;;;;;;40.43;22.95;;;;;;;;;;1847659;77;25483;-48
2023/11/27 13:57:48;;;;;;;44.90;25.45;;;;;;;;;;1847013;77;25088;-47
2023/11/27 14:00:22;;;;;;;42.58;24.43;;;;;;;;;;1847457;77;27265;-47
2023/11/27 14:02:52;;;;;;;44.70;24.20;;;;;;;;;;1847509;77;25702;-47
2023/11/27 14:05:25;;;;;;;44.75;25.43;;;;;;;;;;1847572;77;25085;-47
2023/11/27 14:08:01;;;;;;;42.65;24.75;;;;;;;;;;1847610;77;25489;-48
2023/11/27 14:10:54;;;;;;;44.27;25.02;;;;;;;;;;1847587;77;25344;-49
2023/11/27 14:13:08;;;;;;;45.73;25.48;;;;;;;;;;1843954;77;27511;-47
2023/11/27 14:15:47;;;;;;;50.58;27.75;;;;;;;;;;1845526;77;26186;-46
2023/11/27 14:31:21;;;;;;;60.50;33.50;;;;;;;;;;1847660;77;25057;-47
2023/11/27 14:33:56;;;;;;;46.90;26.45;;;;;;;;;;1823172;77;25330;-48
2023/11/27 14:36:28;;;;;;;48.65;27.65;;;;;;;;;;1847619;77;25350;-46
2023/11/27 14:38:58;;;;;;;46.02;26.68;;;;;;;;;;1846746;77;28580;-48
2023/11/27 14:41:25;;;;;;;46.58;25.77;;;;;;;;;;1846630;77;25521;-47
2023/11/27 14:43:55;;;;;;;52.45;28.27;;;;;;;;;;1847575;77;25277;-50
2023/11/27 14:46:25;;;;;;;48.65;25.65;;;;;;;;;;1851911;77;26042;-48